Altoona, Wisconsin
Current Conditions -  °F | °C
As of 4:56 PM on Friday 31 Oct 2014 (Local Time) from KEAU Reporting Station
Few Clouds Few Clouds  
Wind Chill:   Ceiling: Unl
Heat Index:   Visibility: 10mi
Dew Point: -9°   Wind: 8mph
Humidity: 39%   Direction: 10°N
Pressure: 30.46"   Gusts: NA
Location:  44.81°N, 91.43°W
Report Text: KEAU 312156Z 01007KT 10SM FEW048 04/M09 A3046 RMK AO2 SLP327 T00391089
Loading
Personal Weather Stations






























Interactive Weather Map
Tropical Storm Tracking
New forecast layout! Learn more

10-Day Weather Forecast

Advertisements
Track Severe Weather on mobile